createdAt,value
2022-11-15T00:03:26.992Z,92.34
2022-11-15T00:06:47.609Z,93.25
2022-11-15T00:10:08.870Z,94.55
2022-11-15T00:13:30.644Z,93.52
2022-11-15T00:16:51.312Z,94.14
2022-11-15T00:20:12.565Z,95.17
2022-11-15T00:23:34.689Z,95.74
2022-11-15T00:26:55.223Z,95.94
2022-11-15T00:30:15.814Z,94.45
2022-11-15T00:33:36.331Z,95.88
2022-11-15T00:36:56.849Z,96.48
2022-11-15T00:40:22.432Z,96.81
2022-11-15T00:43:44.733Z,95.96
2022-11-15T00:47:05.765Z,97.16
2022-11-15T00:50:26.156Z,96.86
2022-11-15T00:53:46.648Z,97.33
2022-11-15T00:57:06.956Z,97.27
2022-11-15T01:00:27.409Z,97.40
2022-11-15T01:03:47.896Z,97.70
2022-11-15T01:07:08.435Z,97.76
2022-11-15T01:10:29.497Z,96.96
2022-11-15T01:13:50.058Z,96.18
2022-11-15T01:17:10.486Z,97.01
2022-11-15T01:20:30.927Z,96.75
2022-11-15T01:23:55.755Z,97.25
2022-11-15T01:27:16.129Z,98.24
2022-11-15T01:30:37.449Z,97.68
2022-11-15T01:33:57.964Z,97.58
2022-11-15T01:37:18.476Z,97.92
2022-11-15T01:40:38.913Z,97.95
2022-11-15T01:44:37.656Z,96.70
2022-11-15T01:47:58.331Z,96.71
2022-11-15T01:51:19.994Z,97.14
2022-11-15T01:54:40.356Z,97.64
2022-11-15T01:58:02.788Z,97.07
2022-11-15T02:01:23.319Z,96.86
2022-11-15T02:04:47.146Z,97.46
2022-11-15T02:08:07.812Z,97.45
2022-11-15T02:11:28.758Z,96.92
2022-11-15T02:14:53.791Z,96.73
2022-11-15T02:18:29.368Z,96.69
2022-11-15T02:22:20.229Z,98.34
2022-11-15T02:25:51.521Z,96.94
2022-11-15T02:29:15.159Z,97.78
2022-11-15T02:32:49.538Z,97.50
2022-11-15T02:36:37.559Z,97.29
2022-11-15T02:40:25.472Z,97.47
2022-11-15T02:44:00.156Z,96.77
2022-11-15T02:47:20.574Z,96.24
2022-11-15T02:50:41.134Z,96.42
2022-11-15T02:54:01.490Z,95.37
2022-11-15T02:57:32.330Z,96.43
2022-11-15T03:01:21.315Z,95.76
2022-11-15T03:04:47.811Z,96.48
2022-11-15T03:08:31.832Z,96.04
2022-11-15T03:11:59.537Z,97.17
2022-11-15T03:15:32.707Z,97.71
2022-11-15T03:19:35.315Z,96.60
2022-11-15T03:22:57.976Z,96.14
2022-11-15T03:26:18.845Z,95.70
2022-11-15T03:29:42.339Z,96.07
2022-11-15T03:33:03.165Z,94.99
2022-11-15T03:36:23.852Z,94.00
2022-11-15T03:39:44.713Z,93.15
2022-11-15T03:43:42.101Z,93.43
2022-11-15T03:47:12.737Z,92.95
2022-11-15T03:50:33.160Z,91.77
2022-11-15T03:53:53.466Z,91.91
2022-11-15T03:57:14.303Z,90.18
2022-11-15T04:00:34.808Z,90.81
2022-11-15T04:03:55.693Z,92.42
2022-11-15T04:07:16.156Z,91.47
2022-11-15T04:10:37.130Z,90.64
2022-11-15T04:13:57.538Z,91.62
2022-11-15T04:17:17.939Z,91.99
2022-11-15T04:20:56.657Z,92.00
2022-11-15T04:24:17.290Z,93.00
2022-11-15T04:27:38.236Z,93.45
2022-11-15T04:30:58.864Z,93.74
2022-11-15T04:34:19.316Z,94.55
2022-11-15T04:37:40.620Z,94.54
2022-11-15T04:41:03.893Z,95.34
2022-11-15T04:44:24.185Z,94.97
2022-11-15T04:47:46.237Z,94.30
2022-11-15T04:51:06.768Z,93.87
2022-11-15T04:54:27.265Z,93.30
2022-11-15T04:57:47.684Z,93.17
2022-11-15T05:01:13.032Z,93.02
2022-11-15T05:04:34.027Z,92.86
2022-11-15T05:07:54.777Z,92.06
2022-11-15T05:11:15.379Z,93.23
2022-11-15T05:14:35.778Z,92.69
2022-11-15T05:18:01.322Z,90.72
2022-11-15T05:21:21.998Z,90.79
2022-11-15T05:24:42.627Z,89.15
2022-11-15T05:28:03.185Z,89.89
2022-11-15T05:31:23.821Z,90.64
2022-11-15T05:34:44.617Z,88.77
2022-11-15T05:38:05.142Z,89.67
2022-11-15T05:41:34.853Z,91.02
2022-11-15T05:44:55.180Z,90.25
2022-11-15T05:48:15.699Z,90.87
2022-11-15T05:51:36.552Z,90.88
2022-11-15T05:54:57.283Z,90.19
2022-11-15T05:58:17.906Z,90.28
2022-11-15T06:01:38.623Z,88.81
2022-11-15T06:04:59.381Z,88.52
2022-11-15T06:08:19.876Z,89.73
2022-11-15T06:11:40.298Z,88.79
2022-11-15T06:15:00.543Z,88.17
2022-11-15T06:18:20.946Z,88.58
2022-11-15T06:21:41.348Z,89.92
2022-11-15T06:25:05.408Z,90.27
2022-11-15T06:28:30.222Z,90.73
2022-11-15T06:31:50.877Z,90.59
2022-11-15T06:35:11.325Z,90.83
2022-11-15T06:38:31.730Z,90.67
2022-11-15T06:41:52.242Z,90.66
2022-11-15T06:45:12.528Z,90.32
2022-11-15T06:48:33.765Z,91.13
2022-11-15T06:51:54.141Z,91.40
2022-11-15T06:55:14.686Z,90.62
2022-11-15T06:58:36.097Z,90.41
2022-11-15T07:01:56.957Z,91.28
2022-11-15T07:05:17.522Z,91.05
2022-11-15T07:08:38.984Z,91.93
2022-11-15T07:12:04.615Z,91.83
2022-11-15T07:15:27.984Z,91.18
2022-11-15T07:18:48.348Z,90.53
2022-11-15T07:22:08.760Z,90.55
2022-11-15T07:25:29.305Z,91.29
2022-11-15T07:28:50.405Z,91.02
2022-11-15T07:32:11.117Z,90.33
2022-11-15T07:35:31.959Z,91.14
2022-11-15T07:38:52.273Z,91.02
2022-11-15T07:42:31.457Z,90.78
2022-11-15T07:45:56.116Z,89.83
2022-11-15T07:49:19.416Z,90.34
2022-11-15T07:52:39.769Z,90.58
2022-11-15T07:56:00.126Z,92.34
2022-11-15T07:59:20.665Z,91.15
2022-11-15T08:02:41.408Z,90.69
2022-11-15T08:06:02.172Z,92.21
2022-11-15T08:09:22.382Z,92.44
2022-11-15T08:12:42.802Z,91.95
2022-11-15T08:16:03.933Z,92.70
2022-11-15T08:19:24.471Z,93.78
2022-11-15T08:22:44.957Z,94.91
2022-11-15T08:26:05.913Z,94.95
2022-11-15T08:29:26.257Z,94.60
2022-11-15T08:32:46.748Z,95.30
2022-11-15T08:36:07.450Z,94.35
2022-11-15T08:39:28.173Z,93.47
2022-11-15T08:42:48.735Z,94.47
2022-11-15T08:46:12.952Z,94.25
2022-11-15T08:49:33.390Z,93.99
2022-11-15T08:52:53.751Z,94.46
2022-11-15T08:56:15.545Z,94.85
2022-11-15T08:59:36.779Z,95.96
2022-11-15T09:02:57.361Z,95.42
2022-11-15T09:06:17.848Z,94.46
2022-11-15T09:09:38.412Z,94.72
2022-11-15T09:12:59.145Z,94.60
2022-11-15T09:16:19.688Z,93.78
2022-11-15T09:19:40.094Z,94.27
2022-11-15T09:23:04.207Z,93.09
2022-11-15T09:26:24.779Z,92.09
2022-11-15T09:29:45.109Z,92.80
2022-11-15T09:33:12.602Z,92.25
2022-11-15T09:36:32.931Z,93.48
2022-11-15T09:39:53.541Z,92.33
2022-11-15T09:44:15.023Z,95.35
2022-11-15T09:47:41.204Z,95.31
2022-11-15T09:51:01.963Z,95.09
2022-11-15T09:54:52.290Z,95.36
2022-11-15T09:57:57.688Z,95.35
2022-11-15T10:00:59.787Z,96.39
2022-11-15T10:04:01.844Z,95.34
2022-11-15T10:07:16.121Z,95.33
2022-11-15T10:10:37.984Z,94.93
2022-11-15T10:13:43.953Z,95.12
2022-11-15T10:16:57.801Z,94.80
2022-11-15T10:20:21.911Z,95.39
2022-11-15T10:23:24.273Z,95.93
2022-11-15T10:26:26.501Z,95.52
2022-11-15T10:29:28.534Z,95.27
2022-11-15T10:32:30.591Z,95.65
2022-11-15T10:35:32.677Z,95.20
2022-11-15T10:38:36.430Z,95.25
2022-11-15T10:41:40.835Z,96.10
2022-11-15T10:44:44.380Z,95.15
2022-11-15T10:47:46.423Z,96.78
2022-11-15T10:50:48.901Z,95.95
2022-11-15T10:53:50.945Z,96.41
2022-11-15T10:56:55.954Z,95.45
2022-11-15T11:00:06.664Z,95.16
2022-11-15T11:03:31.400Z,96.80
2022-11-15T11:06:53.584Z,95.90
2022-11-15T11:10:49.182Z,96.60
2022-11-15T11:13:42.253Z,96.54
2022-11-15T11:16:50.920Z,96.09
2022-11-15T11:20:11.841Z,97.04
2022-11-15T11:23:30.549Z,96.82
2022-11-15T11:26:48.920Z,96.69
2022-11-15T11:30:08.313Z,96.88
2022-11-15T11:33:38.879Z,97.10
2022-11-15T11:36:52.616Z,96.53
2022-11-15T11:40:53.237Z,96.03
2022-11-15T11:44:28.597Z,96.77
2022-11-15T11:47:49.760Z,96.00
2022-11-15T11:50:51.896Z,96.46
2022-11-15T11:54:07.381Z,96.44
2022-11-15T11:57:31.907Z,96.50
2022-11-15T12:00:51.090Z,95.64
2022-11-15T12:04:28.052Z,95.48
2022-11-15T12:07:35.561Z,95.67
2022-11-15T12:10:37.654Z,95.63
2022-11-15T12:13:39.820Z,95.64
2022-11-15T12:16:43.724Z,95.62
2022-11-15T12:19:45.905Z,96.45
2022-11-15T12:22:55.328Z,95.45
2022-11-15T12:26:15.556Z,95.60
2022-11-15T12:29:24.239Z,95.22
2022-11-15T12:32:37.213Z,95.26
2022-11-15T12:35:42.087Z,95.99
2022-11-15T12:39:03.724Z,95.52
2022-11-15T12:42:05.648Z,96.01
2022-11-15T12:45:41.248Z,96.26
2022-11-15T12:48:43.308Z,96.45
2022-11-15T12:51:48.452Z,97.81
2022-11-15T12:54:56.364Z,97.14
2022-11-15T12:58:19.892Z,96.20
2022-11-15T13:01:45.214Z,97.52
2022-11-15T13:04:47.303Z,96.85
2022-11-15T13:07:49.233Z,96.10
2022-11-15T13:10:51.858Z,97.68
2022-11-15T13:13:53.919Z,96.62
2022-11-15T13:17:00.113Z,97.04
2022-11-15T13:20:08.131Z,96.46
2022-11-15T13:23:15.782Z,96.95
2022-11-15T13:26:17.801Z,96.80
2022-11-15T13:29:20.462Z,96.83
2022-11-15T13:32:22.562Z,96.30
2022-11-15T13:35:30.108Z,96.69
2022-11-15T13:38:39.045Z,98.77
2022-11-15T13:41:51.627Z,96.66
2022-11-15T13:44:59.291Z,98.14
2022-11-15T13:48:01.233Z,97.57
2022-11-15T13:51:05.924Z,97.82
2022-11-15T13:54:16.425Z,98.52
2022-11-15T13:57:28.654Z,98.13
2022-11-15T14:00:39.788Z,98.50
2022-11-15T14:03:58.405Z,98.72
2022-11-15T14:07:01.000Z,98.21
2022-11-15T14:10:27.114Z,99.16
2022-11-15T14:13:31.298Z,98.24
2022-11-15T14:16:45.035Z,98.33
2022-11-15T14:19:47.109Z,98.64
2022-11-15T14:23:03.296Z,98.60
2022-11-15T14:26:11.399Z,98.82
2022-11-15T14:29:27.155Z,98.36
2022-11-15T14:32:31.592Z,98.58
2022-11-15T14:35:33.717Z,98.91
2022-11-15T14:38:36.130Z,94.46
2022-11-15T14:41:41.174Z,92.89
2022-11-15T14:44:46.004Z,90.42
2022-11-15T14:47:48.518Z,89.00
2022-11-15T14:50:50.594Z,88.24
2022-11-15T14:53:53.167Z,87.30
2022-11-15T14:56:55.258Z,85.92
2022-11-15T14:59:57.977Z,84.57
2022-11-15T15:03:13.932Z,84.12
2022-11-15T15:06:18.292Z,83.38
2022-11-15T15:09:20.741Z,83.29
2022-11-15T15:12:24.262Z,84.01
2022-11-15T15:15:34.134Z,86.04
2022-11-15T15:18:36.179Z,84.72
2022-11-15T15:21:38.209Z,84.87
2022-11-15T15:24:40.280Z,84.02
2022-11-15T15:27:42.302Z,83.07
2022-11-15T15:30:44.689Z,81.02
2022-11-15T15:33:46.743Z,80.59
2022-11-15T15:36:48.817Z,81.65
2022-11-15T15:39:55.549Z,82.43
2022-11-15T15:42:57.621Z,82.89
2022-11-15T15:45:59.704Z,82.38
2022-11-15T15:49:01.847Z,82.06
2022-11-15T15:52:03.874Z,81.36
2022-11-15T15:55:06.188Z,82.04
2022-11-15T15:58:09.223Z,82.16
2022-11-15T16:01:11.479Z,82.09
2022-11-15T16:04:13.585Z,81.97
2022-11-15T16:07:22.371Z,81.39
2022-11-15T16:10:26.185Z,80.85
2022-11-15T16:13:29.379Z,81.59
2022-11-15T16:16:31.436Z,81.33
2022-11-15T16:19:33.495Z,80.93
2022-11-15T16:22:35.521Z,81.08
2022-11-15T16:25:50.390Z,81.18
2022-11-15T16:28:52.900Z,81.35
2022-11-15T16:31:55.234Z,81.37
2022-11-15T16:34:59.271Z,80.72
2022-11-15T16:38:01.324Z,80.55
2022-11-15T16:41:03.373Z,81.52
2022-11-15T16:44:05.429Z,81.76
2022-11-15T16:47:20.103Z,82.09
2022-11-15T16:50:30.869Z,82.59
2022-11-15T16:53:32.926Z,82.10
2022-11-15T16:56:35.064Z,83.08
2022-11-15T16:59:38.433Z,81.94
2022-11-15T17:02:40.698Z,81.32
2022-11-15T17:05:42.748Z,81.30
2022-11-15T17:08:45.930Z,81.35
2022-11-15T17:11:48.010Z,83.76
2022-11-15T17:14:50.029Z,84.91
2022-11-15T17:17:53.472Z,85.41
2022-11-15T17:20:55.530Z,84.96
2022-11-15T17:23:59.841Z,84.98
2022-11-15T17:27:01.915Z,83.76
2022-11-15T17:30:05.203Z,83.82
2022-11-15T17:33:08.000Z,84.57
2022-11-15T17:36:12.260Z,86.31
2022-11-15T17:39:14.302Z,86.34
2022-11-15T17:42:16.426Z,88.06
2022-11-15T17:45:18.462Z,88.65
2022-11-15T17:48:20.537Z,88.72
2022-11-15T17:51:24.078Z,88.06
2022-11-15T17:54:26.180Z,86.53
2022-11-15T17:57:28.228Z,86.74
2022-11-15T18:00:30.330Z,86.34
2022-11-15T18:03:37.833Z,86.03
2022-11-15T18:06:40.006Z,86.95
2022-11-15T18:09:44.066Z,86.86
2022-11-15T18:12:46.511Z,86.37
2022-11-15T18:15:56.083Z,87.31
2022-11-15T18:18:58.748Z,88.26
2022-11-15T18:22:01.725Z,88.74
2022-11-15T18:25:04.163Z,89.59
2022-11-15T18:28:06.262Z,89.37
2022-11-15T18:31:16.612Z,89.97
2022-11-15T18:34:18.737Z,90.77
2022-11-15T18:37:20.860Z,90.23
2022-11-15T18:40:22.974Z,89.84
2022-11-15T18:43:25.113Z,88.52
2022-11-15T18:46:31.448Z,88.52
2022-11-15T18:49:33.539Z,88.67
2022-11-15T18:52:35.641Z,87.52
2022-11-15T18:55:37.759Z,87.23
2022-11-15T18:58:45.456Z,86.07
2022-11-15T19:01:48.461Z,86.19
2022-11-15T19:04:50.678Z,86.22
2022-11-15T19:07:52.709Z,85.44
2022-11-15T19:10:54.769Z,85.69
2022-11-15T19:13:59.609Z,83.07
2022-11-15T19:17:01.677Z,81.57
2022-11-15T19:20:04.093Z,81.45
2022-11-15T19:23:06.124Z,81.68
2022-11-15T19:26:12.945Z,80.83
2022-11-15T19:29:18.290Z,79.13
2022-11-15T19:32:20.630Z,80.28
2022-11-15T19:35:22.720Z,79.58
2022-11-15T19:38:24.745Z,79.32
2022-11-15T19:41:26.843Z,79.45
2022-11-15T19:44:28.983Z,79.35
2022-11-15T19:47:31.060Z,79.02
2022-11-15T19:50:33.106Z,78.50
2022-11-15T19:53:35.833Z,77.94
2022-11-15T19:56:39.665Z,78.50
2022-11-15T19:59:41.723Z,79.23
2022-11-15T20:02:43.828Z,78.85
2022-11-15T20:05:45.889Z,78.65
2022-11-15T20:08:48.206Z,81.30
2022-11-15T20:11:50.316Z,83.00
2022-11-15T20:14:52.466Z,82.61
2022-11-15T20:17:54.509Z,82.62
2022-11-15T20:20:57.967Z,85.21
2022-11-15T20:24:00.531Z,84.50
2022-11-15T20:27:02.689Z,85.32
2022-11-15T20:30:05.251Z,84.33
2022-11-15T20:33:07.291Z,84.38
2022-11-15T20:36:15.395Z,83.27
2022-11-15T20:39:17.513Z,82.42
2022-11-15T20:42:19.594Z,81.91
2022-11-15T20:45:21.605Z,82.38
2022-11-15T20:48:23.682Z,81.60
2022-11-15T20:51:25.747Z,81.38
2022-11-15T20:54:27.756Z,81.20
2022-11-15T20:57:29.827Z,81.27
2022-11-15T21:00:31.885Z,82.17
2022-11-15T21:03:34.394Z,81.54
2022-11-15T21:06:36.454Z,81.90
2022-11-15T21:09:56.812Z,82.53
2022-11-15T21:12:58.850Z,83.79
2022-11-15T21:16:03.026Z,84.31
2022-11-15T21:19:06.107Z,85.14
2022-11-15T21:22:09.680Z,84.96
2022-11-15T21:25:11.749Z,85.42
2022-11-15T21:28:13.787Z,84.37
2022-11-15T21:31:15.901Z,83.91
2022-11-15T21:34:18.099Z,83.38
2022-11-15T21:37:20.120Z,83.83
2022-11-15T21:40:22.182Z,83.88
2022-11-15T21:43:24.232Z,82.30
2022-11-15T21:46:26.491Z,82.35
2022-11-15T21:49:28.554Z,82.62
2022-11-15T21:52:30.590Z,84.25
2022-11-15T21:55:32.663Z,81.95
2022-11-15T21:58:35.559Z,81.37
2022-11-15T22:01:56.359Z,81.46
2022-11-15T22:04:58.391Z,81.99
2022-11-15T22:08:00.469Z,81.60
2022-11-15T22:11:03.892Z,80.07
2022-11-15T22:14:06.054Z,81.40
2022-11-15T22:17:14.031Z,80.62
2022-11-15T22:20:43.047Z,80.64
2022-11-15T22:23:39.024Z,79.65
2022-11-15T22:26:41.073Z,82.27
2022-11-15T22:29:43.337Z,80.21
2022-11-15T22:32:45.673Z,80.62
2022-11-15T22:35:48.361Z,81.13
2022-11-15T22:38:50.444Z,80.52
2022-11-15T22:41:53.373Z,80.67
2022-11-15T22:44:55.435Z,81.25
2022-11-15T22:47:57.545Z,80.24
2022-11-15T22:50:59.784Z,80.83
2022-11-15T22:54:02.009Z,81.06
2022-11-15T22:57:04.227Z,80.80
2022-11-15T23:00:12.027Z,80.75
2022-11-15T23:03:14.048Z,81.77
2022-11-15T23:06:16.525Z,81.76
2022-11-15T23:09:18.613Z,82.31
2022-11-15T23:12:39.836Z,80.82
2022-11-15T23:16:00.778Z,80.99
2022-11-15T23:19:09.339Z,79.44
2022-11-15T23:22:41.001Z,79.08
2022-11-15T23:25:43.119Z,80.17
2022-11-15T23:28:45.198Z,80.86
2022-11-15T23:32:06.189Z,81.60
2022-11-15T23:35:09.958Z,81.95
2022-11-15T23:38:12.068Z,83.47
2022-11-15T23:41:14.186Z,82.77
2022-11-15T23:44:16.321Z,81.81
2022-11-15T23:47:21.410Z,81.56
2022-11-15T23:50:23.505Z,80.98
2022-11-15T23:53:25.585Z,79.49
2022-11-15T23:56:27.784Z,80.36
2022-11-15T23:59:29.884Z,79.85
